Weather at Al Asad Air Base

Public forecast

Using degrees Celsius for public forecast. Weather courtesy of forecast.io.

Closest aviation weather report (METAR) to Al Asad Air Base

Closest report is Baghdad International Airport / New Al Muthana Air Base, 95.1 nm (176.1 km) ESE.

2024/05/24 17:00 (retrieved 39 minutes ago)

ORBI 241700Z 25004KT CAVOK 36/06 Q1003 NOSIG

Closest aviation forecast (TAF) to Al Asad Air Base

Closest forecast is Baghdad International Airport / New Al Muthana Air Base, 95.1 nm (176.1 km) ESE.

2024/05/24 12:18 (retrieved 5 hours ago)

TAF TAF ORBI 241100Z 2412/2512 18012KT 8000 NSC BECMG 2418/2420 34010KT 6000